Time;durP1;ratioP1;P1;durP2;ratioP2;P2;SDS_P1;SDS_P2;PMS_P1;PMS_P2;Temp;Humidity;BMP_temperature;BMP_pressure;BME280_temperature;BME280_humidity;BME280_pressure;Samples;Min_cycle;Max_cycle;Signal;HPM_P1;HPM_P2
2024/01/20 00:01:56;;;;;;;2.63;1.77;;;19.40;49.60;;;;;;5055320;28;20442;-52
2024/01/20 00:04:22;;;;;;;3.95;1.90;;;19.30;49.50;;;;;;5045493;28;20086;-51
2024/01/20 00:06:47;;;;;;;3.92;1.95;;;19.30;49.50;;;;;;5054551;28;20090;-47
2024/01/20 00:09:13;;;;;;;2.25;2.00;;;19.30;50.10;;;;;;5048088;28;20037;-49
2024/01/20 00:11:39;;;;;;;2.35;1.92;;;19.30;49.50;;;;;;5051858;28;20036;-50
2024/01/20 00:14:04;;;;;;;2.88;1.80;;;19.30;49.50;;;;;;5035854;28;20035;-54
2024/01/20 00:16:30;;;;;;;2.30;1.45;;;19.30;49.50;;;;;;5053129;28;20566;-48
2024/01/20 00:18:56;;;;;;;2.20;1.55;;;19.20;49.50;;;;;;5046327;28;20101;-46
2024/01/20 00:21:22;;;;;;;2.35;1.95;;;19.30;49.50;;;;;;5048525;28;20109;-51
2024/01/20 00:23:48;;;;;;;2.78;1.63;;;19.30;49.40;;;;;;5051451;28;20537;-46
2024/01/20 00:26:13;;;;;;;2.00;1.77;;;19.30;49.50;;;;;;5053188;28;20032;-50
2024/01/20 00:28:39;;;;;;;3.88;1.60;;;19.30;49.30;;;;;;5055406;28;20124;-52
2024/01/20 00:31:05;;;;;;;3.78;1.77;;;19.30;49.40;;;;;;5029994;28;20052;-51
2024/01/20 00:33:31;;;;;;;2.55;1.60;;;19.20;49.40;;;;;;5047706;28;20489;-48
2024/01/20 00:35:56;;;;;;;3.00;1.85;;;19.20;49.60;;;;;;5051877;28;20083;-47
2024/01/20 00:38:22;;;;;;;2.30;1.70;;;19.20;49.70;;;;;;5049650;28;20510;-55
2024/01/20 00:40:47;;;;;;;2.13;1.77;;;19.20;49.70;;;;;;5050546;28;20044;-48
2024/01/20 00:43:14;;;;;;;2.65;1.80;;;19.20;49.70;;;;;;5050734;28;20078;-51
2024/01/20 00:45:39;;;;;;;2.25;1.80;;;19.10;49.70;;;;;;5050309;28;20091;-50
2024/01/20 00:48:05;;;;;;;1.95;1.60;;;19.10;49.80;;;;;;5047045;28;20029;-48
2024/01/20 00:50:30;;;;;;;1.90;1.40;;;19.10;49.70;;;;;;5048958;28;20068;-49
2024/01/20 00:52:56;;;;;;;2.67;1.63;;;19.10;49.90;;;;;;5047346;28;20510;-49
2024/01/20 00:55:21;;;;;;;3.40;1.77;;;19.10;49.90;;;;;;5049278;28;20112;-52
2024/01/20 00:57:47;;;;;;;3.05;1.90;;;19.10;49.80;;;;;;5049594;28;20036;-51
2024/01/20 01:00:12;;;;;;;1.88;1.50;;;19.10;49.80;;;;;;5027516;28;20021;-45
2024/01/20 01:02:40;;;;;;;2.80;1.70;;;19.10;49.80;;;;;;5050452;28;20097;-51
2024/01/20 01:05:07;;;;;;;2.38;1.40;;;19.10;49.70;;;;;;5053922;28;20029;-49
2024/01/20 01:07:33;;;;;;;3.13;1.58;;;19.00;49.80;;;;;;5046970;28;20023;-48
2024/01/20 01:09:59;;;;;;;3.95;1.63;;;19.00;49.80;;;;;;5048215;28;20090;-47
2024/01/20 01:12:25;;;;;;;1.98;1.48;;;19.00;49.90;;;;;;5050285;28;20068;-51
2024/01/20 01:14:50;;;;;;;2.80;1.52;;;18.90;50.00;;;;;;5051193;28;20443;-46
2024/01/20 01:17:16;;;;;;;2.42;1.40;;;18.90;50.00;;;;;;5049472;28;20032;-60
2024/01/20 01:19:42;;;;;;;3.53;1.55;;;18.80;50.10;;;;;;5047851;28;20041;-47
2024/01/20 01:22:08;;;;;;;2.20;1.88;;;18.80;50.20;;;;;;5048957;28;20075;-48
2024/01/20 01:24:33;;;;;;;3.28;1.70;;;18.70;50.20;;;;;;5046552;28;20029;-48
2024/01/20 01:26:59;;;;;;;1.73;1.58;;;18.70;50.80;;;;;;5049731;28;20029;-46
2024/01/20 01:29:24;;;;;;;3.03;1.60;;;18.70;50.20;;;;;;5049282;28;20483;-48
2024/01/20 01:31:50;;;;;;;2.75;1.60;;;18.60;50.20;;;;;;5047836;28;20116;-47
2024/01/20 01:34:15;;;;;;;5.53;2.13;;;18.60;50.40;;;;;;5050370;28;20123;-49
2024/01/20 01:36:41;;;;;;;1.90;1.50;;;18.60;50.50;;;;;;5052125;28;20037;-51
2024/01/20 01:39:06;;;;;;;4.03;1.60;;;18.50;50.50;;;;;;5056727;28;20033;-49
2024/01/20 01:41:33;;;;;;;3.35;1.50;;;18.50;50.70;;;;;;5046703;28;20037;-48
2024/01/20 01:43:59;;;;;;;2.97;1.52;;;18.50;50.60;;;;;;5045002;28;20025;-49
2024/01/20 01:46:26;;;;;;;2.78;1.75;;;18.50;50.70;;;;;;5045861;28;20106;-48
2024/01/20 01:48:52;;;;;;;2.85;1.67;;;18.50;50.70;;;;;;5048354;28;20054;-53
2024/01/20 01:51:17;;;;;;;3.40;1.30;;;18.50;50.60;;;;;;5039925;28;20647;-51
2024/01/20 01:53:43;;;;;;;3.00;2.05;;;18.60;50.40;;;;;;5050331;28;20399;-45
2024/01/20 01:56:09;;;;;;;3.08;1.95;;;18.60;50.30;;;;;;5047990;28;20029;-47
2024/01/20 01:58:35;;;;;;;2.60;1.38;;;18.70;50.00;;;;;;5048936;28;20036;-51
2024/01/20 02:01:00;;;;;;;4.13;1.77;;;18.80;49.90;;;;;;5035472;28;20036;-52
2024/01/20 02:03:26;;;;;;;1.77;1.42;;;18.90;49.70;;;;;;5043660;28;20025;-48
2024/01/20 02:05:52;;;;;;;1.50;1.33;;;19.00;49.30;;;;;;5049317;28;20405;-51
2024/01/20 02:08:18;;;;;;;2.92;1.50;;;19.20;49.30;;;;;;5045562;28;20041;-48
2024/01/20 02:10:46;;;;;;;2.72;2.00;;;19.30;49.10;;;;;;5049428;28;20098;-48
2024/01/20 02:13:13;;;;;;;3.35;1.50;;;19.40;49.00;;;;;;5052527;28;20040;-47
2024/01/20 02:15:39;;;;;;;2.20;1.60;;;19.50;48.80;;;;;;5051093;28;20031;-49
2024/01/20 02:18:05;;;;;;;1.63;1.50;;;19.50;48.70;;;;;;5052010;28;20116;-48
2024/01/20 02:20:30;;;;;;;2.55;1.60;;;19.60;49.10;;;;;;5052398;28;20071;-48
2024/01/20 02:22:56;;;;;;;2.65;1.52;;;19.70;48.40;;;;;;5048703;28;20021;-52
2024/01/20 02:25:21;;;;;;;1.63;1.25;;;19.80;48.30;;;;;;5038154;28;20029;-49
2024/01/20 02:27:47;;;;;;;1.88;1.40;;;19.80;48.10;;;;;;5053690;28;20029;-57
2024/01/20 02:30:13;;;;;;;2.85;1.50;;;19.90;48.10;;;;;;5031587;28;20058;-47
2024/01/20 02:32:38;;;;;;;1.83;1.48;;;20.00;48.10;;;;;;5049674;28;20474;-51
2024/01/20 02:35:04;;;;;;;2.03;1.40;;;19.90;47.80;;;;;;5050400;28;20035;-52
2024/01/20 02:37:30;;;;;;;3.08;1.30;;;20.00;47.90;;;;;;5046000;28;20040;-45
2024/01/20 02:39:57;;;;;;;2.35;1.33;;;20.00;47.90;;;;;;5049483;28;20147;-51
2024/01/20 02:42:22;;;;;;;3.92;1.55;;;20.00;47.90;;;;;;5052083;28;20033;-48
2024/01/20 02:44:48;;;;;;;2.65;1.52;;;20.00;47.90;;;;;;5047460;28;20564;-51
2024/01/20 02:47:13;;;;;;;1.80;1.42;;;19.90;47.90;;;;;;5051065;28;20394;-49
2024/01/20 02:49:39;;;;;;;3.90;1.45;;;19.90;48.00;;;;;;5047548;28;20532;-50
2024/01/20 02:52:05;;;;;;;3.85;1.40;;;19.90;48.00;;;;;;5045095;28;20082;-51
2024/01/20 02:54:30;;;;;;;1.77;0.95;;;19.80;48.10;;;;;;5049169;28;20033;-50
2024/01/20 02:56:56;;;;;;;3.85;1.70;;;19.80;48.20;;;;;;5031909;28;20112;-52
2024/01/20 02:59:21;;;;;;;2.72;1.10;;;19.70;48.30;;;;;;5046358;28;20017;-49
2024/01/20 03:01:47;;;;;;;3.55;1.30;;;19.70;48.40;;;;;;5044186;28;20056;-58
2024/01/20 03:04:16;;;;;;;2.13;1.27;;;19.70;48.40;;;;;;5021716;28;20119;-52
2024/01/20 03:06:41;;;;;;;2.25;1.40;;;19.60;48.50;;;;;;5054897;28;20051;-49
2024/01/20 03:09:07;;;;;;;1.85;1.17;;;19.50;48.60;;;;;;5023683;28;20051;-50
2024/01/20 03:11:36;;;;;;;1.98;1.45;;;19.50;48.70;;;;;;5008334;28;20106;-47
2024/01/20 03:14:02;;;;;;;1.90;1.40;;;19.50;48.70;;;;;;5035471;28;20024;-55
2024/01/20 03:16:28;;;;;;;2.03;1.20;;;19.40;48.90;;;;;;5048218;28;20524;-53
2024/01/20 03:18:54;;;;;;;3.58;1.38;;;19.40;49.00;;;;;;5049079;28;20532;-48
2024/01/20 03:21:19;;;;;;;2.15;1.30;;;19.30;48.90;;;;;;5014791;28;20037;-54
2024/01/20 03:23:45;;;;;;;1.35;1.10;;;19.30;49.10;;;;;;5039134;28;20714;-48
2024/01/20 03:26:11;;;;;;;2.60;1.05;;;19.20;49.00;;;;;;5032406;28;20045;-55
2024/01/20 03:28:38;;;;;;;1.65;1.20;;;19.20;49.10;;;;;;5050724;28;20033;-51
2024/01/20 03:31:04;;;;;;;1.27;1.10;;;19.10;48.90;;;;;;5046397;28;20041;-50
2024/01/20 03:33:29;;;;;;;1.75;1.30;;;19.10;49.10;;;;;;5051100;28;20025;-48
2024/01/20 03:35:55;;;;;;;1.55;1.33;;;19.00;49.20;;;;;;5052405;28;20040;-52
2024/01/20 03:38:20;;;;;;;2.42;1.30;;;19.00;49.20;;;;;;5047148;28;20086;-50
2024/01/20 03:40:46;;;;;;;1.98;1.33;;;19.00;49.40;;;;;;5053939;28;20029;-49
2024/01/20 03:43:12;;;;;;;1.63;1.08;;;18.90;49.60;;;;;;5049105;28;20029;-52
2024/01/20 03:45:42;;;;;;;2.33;1.40;;;18.90;49.50;;;;;;5048719;28;20497;-49
2024/01/20 03:48:08;;;;;;;2.40;1.20;;;18.90;49.60;;;;;;5053861;28;20731;-55
2024/01/20 03:50:34;;;;;;;3.13;1.38;;;18.80;50.20;;;;;;5048328;28;20734;-50
2024/01/20 03:53:00;;;;;;;1.77;1.10;;;18.80;49.60;;;;;;5050338;28;20060;-50
2024/01/20 03:55:25;;;;;;;2.38;1.50;;;18.80;49.60;;;;;;5047857;28;20112;-56
2024/01/20 03:57:51;;;;;;;2.42;1.27;;;18.80;49.70;;;;;;5051327;28;20094;-51
2024/01/20 04:00:17;;;;;;;1.38;1.17;;;18.80;49.70;;;;;;5050168;28;20874;-51
2024/01/20 04:02:42;;;;;;;1.70;1.40;;;18.70;49.70;;;;;;5047337;28;20768;-49
2024/01/20 04:05:08;;;;;;;1.42;1.00;;;18.70;50.00;;;;;;5045639;28;20060;-49
2024/01/20 04:07:34;;;;;;;1.92;1.10;;;18.70;49.80;;;;;;5046861;28;20368;-48
2024/01/20 04:09:59;;;;;;;2.35;1.30;;;18.70;49.80;;;;;;5046770;28;20075;-49
2024/01/20 04:12:25;;;;;;;2.17;1.30;;;18.70;49.90;;;;;;5044024;28;20390;-50
2024/01/20 04:14:50;;;;;;;2.30;1.10;;;18.60;49.80;;;;;;5049121;28;20191;-51
2024/01/20 04:17:16;;;;;;;1.95;0.90;;;18.70;49.70;;;;;;5045425;28;20033;-51
2024/01/20 04:19:44;;;;;;;2.25;1.23;;;18.60;49.60;;;;;;5047795;28;20044;-48
2024/01/20 04:22:10;;;;;;;2.15;1.20;;;18.60;49.60;;;;;;5048727;28;20029;-48
2024/01/20 04:24:35;;;;;;;3.03;1.23;;;18.70;49.60;;;;;;5045593;28;20036;-45
2024/01/20 04:27:01;;;;;;;2.55;1.20;;;18.60;49.60;;;;;;5048756;28;20033;-49
2024/01/20 04:29:26;;;;;;;2.17;1.38;;;18.60;49.60;;;;;;5046763;28;20029;-51
2024/01/20 04:31:52;;;;;;;2.40;1.50;;;18.70;49.50;;;;;;5052946;28;20073;-48
2024/01/20 04:34:17;;;;;;;1.38;1.27;;;18.70;49.30;;;;;;5049208;28;20106;-48
2024/01/20 04:36:42;;;;;;;1.38;0.90;;;18.70;49.30;;;;;;5048574;28;20033;-55
2024/01/20 04:39:08;;;;;;;2.08;1.15;;;18.70;49.40;;;;;;5051751;28;20115;-50
2024/01/20 04:41:33;;;;;;;1.33;1.10;;;18.70;49.40;;;;;;5046264;28;20520;-51
2024/01/20 04:43:59;;;;;;;1.40;1.20;;;18.70;49.40;;;;;;5049062;28;20041;-51
2024/01/20 04:46:24;;;;;;;1.73;1.10;;;18.80;49.30;;;;;;5049145;28;20025;-50
2024/01/20 04:48:50;;;;;;;1.00;0.90;;;18.80;49.30;;;;;;5046528;28;20061;-50
2024/01/20 04:51:16;;;;;;;4.10;1.42;;;18.80;49.20;;;;;;5051063;28;20172;-52
2024/01/20 04:53:41;;;;;;;1.88;1.20;;;18.90;49.20;;;;;;5044513;28;20094;-51
2024/01/20 04:56:07;;;;;;;2.08;1.15;;;18.90;49.10;;;;;;5051539;28;20923;-51
2024/01/20 04:58:32;;;;;;;1.73;1.05;;;18.90;49.10;;;;;;5053095;28;20032;-55
2024/01/20 05:00:58;;;;;;;1.15;0.90;;;19.00;49.10;;;;;;5051474;28;20086;-53
2024/01/20 05:03:23;;;;;;;2.55;1.00;;;19.00;48.90;;;;;;5055288;28;20033;-49
2024/01/20 05:05:49;;;;;;;1.95;1.05;;;19.10;48.90;;;;;;5050888;28;20056;-48
2024/01/20 05:08:15;;;;;;;1.85;1.00;;;19.10;48.70;;;;;;5044240;28;20033;-48
2024/01/20 05:10:40;;;;;;;2.25;1.15;;;19.20;48.60;;;;;;5045515;28;20059;-50
2024/01/20 05:13:06;;;;;;;2.08;0.90;;;19.20;48.50;;;;;;5046195;28;20426;-51
2024/01/20 05:15:32;;;;;;;1.63;1.10;;;19.20;48.50;;;;;;5045348;28;20025;-52
2024/01/20 05:17:57;;;;;;;2.08;0.98;;;19.30;48.40;;;;;;5050432;28;20660;-47
2024/01/20 05:20:23;;;;;;;1.60;1.10;;;19.30;48.20;;;;;;5048726;28;20043;-48
2024/01/20 05:22:49;;;;;;;1.75;1.25;;;19.40;48.10;;;;;;5046232;28;20486;-54
2024/01/20 05:25:14;;;;;;;0.93;0.70;;;19.40;48.10;;;;;;5049057;28;20044;-47
2024/01/20 05:27:40;;;;;;;1.60;1.23;;;19.40;47.90;;;;;;5050215;28;20029;-50
2024/01/20 05:30:07;;;;;;;1.55;1.10;;;19.40;48.00;;;;;;5043212;28;20117;-48
2024/01/20 05:32:32;;;;;;;2.08;1.02;;;19.50;48.10;;;;;;5027855;28;20028;-47
2024/01/20 05:34:58;;;;;;;1.00;0.90;;;19.50;48.10;;;;;;5048655;28;20375;-50
2024/01/20 05:37:23;;;;;;;1.38;1.13;;;19.40;48.10;;;;;;5045398;28;20029;-51
2024/01/20 05:39:50;;;;;;;1.63;0.95;;;19.40;48.20;;;;;;5049019;28;20040;-58
2024/01/20 05:42:15;;;;;;;1.52;0.77;;;19.40;48.30;;;;;;5052542;28;20528;-51
2024/01/20 05:44:41;;;;;;;1.50;1.00;;;19.40;48.30;;;;;;5044262;28;20065;-50
2024/01/20 05:47:06;;;;;;;2.10;1.05;;;19.40;48.40;;;;;;5053089;28;20033;-51
2024/01/20 05:49:32;;;;;;;1.25;0.85;;;19.30;48.40;;;;;;5052201;28;20025;-48
2024/01/20 05:51:57;;;;;;;1.30;0.80;;;19.30;48.50;;;;;;5049691;28;20042;-49
2024/01/20 05:54:23;;;;;;;2.17;0.90;;;19.30;48.50;;;;;;5055327;28;20037;-51
2024/01/20 05:56:48;;;;;;;2.20;1.10;;;19.30;48.50;;;;;;5054874;28;20033;-50
2024/01/20 05:59:13;;;;;;;3.63;1.20;;;19.30;48.60;;;;;;5054272;28;20137;-50
2024/01/20 06:01:39;;;;;;;2.47;0.98;;;19.20;48.50;;;;;;5039563;28;20512;-50
2024/01/20 06:04:05;;;;;;;1.40;0.95;;;19.20;48.50;;;;;;5065156;28;20060;-53
2024/01/20 06:06:30;;;;;;;1.35;0.98;;;19.20;48.60;;;;;;5064045;28;20025;-50
2024/01/20 06:08:56;;;;;;;2.42;1.00;;;19.20;48.60;;;;;;5062969;28;20398;-51
2024/01/20 06:11:24;;;;;;;1.27;0.93;;;19.20;48.70;;;;;;5061609;28;20110;-50
2024/01/20 06:13:49;;;;;;;1.10;1.00;;;19.20;48.80;;;;;;5051514;28;20037;-55
2024/01/20 06:16:15;;;;;;;4.10;1.20;;;19.10;48.70;;;;;;5056729;28;20108;-47
2024/01/20 06:18:40;;;;;;;1.35;1.15;;;19.20;48.90;;;;;;5047473;28;20120;-48
2024/01/20 06:21:06;;;;;;;2.00;0.93;;;19.10;48.80;;;;;;5054459;28;20371;-51
2024/01/20 06:23:32;;;;;;;2.17;1.10;;;19.10;48.80;;;;;;5051499;28;20025;-50
2024/01/20 06:25:59;;;;;;;1.20;0.90;;;19.10;48.90;;;;;;5053193;28;20036;-47
2024/01/20 06:28:25;;;;;;;3.28;1.00;;;19.10;48.90;;;;;;5056800;28;20117;-45
2024/01/20 06:30:51;;;;;;;2.75;1.10;;;19.10;49.00;;;;;;5045571;28;20467;-51
2024/01/20 06:33:16;;;;;;;1.10;0.90;;;19.10;48.90;;;;;;5053769;28;20028;-51
2024/01/20 06:35:42;;;;;;;2.25;1.20;;;19.10;49.00;;;;;;5052798;28;20040;-48
2024/01/20 06:38:07;;;;;;;2.22;1.20;;;19.10;49.00;;;;;;5055098;28;20033;-48
2024/01/20 06:40:33;;;;;;;2.50;0.98;;;19.10;49.00;;;;;;5051096;28;20390;-49
2024/01/20 06:42:58;;;;;;;1.25;1.00;;;19.00;48.90;;;;;;5054669;28;20405;-48
2024/01/20 06:45:24;;;;;;;2.17;0.75;;;19.00;49.00;;;;;;5051369;28;20029;-49
2024/01/20 06:47:49;;;;;;;1.70;0.98;;;19.10;49.10;;;;;;5054226;28;20193;-48
2024/01/20 06:50:15;;;;;;;2.17;1.20;;;19.00;49.10;;;;;;5053945;28;20056;-48
2024/01/20 06:52:41;;;;;;;2.97;0.95;;;19.00;49.10;;;;;;5048375;28;20565;-48
2024/01/20 06:55:07;;;;;;;2.30;1.00;;;19.00;49.00;;;;;;5051718;28;20037;-48
2024/01/20 06:57:32;;;;;;;1.27;1.00;;;19.00;49.00;;;;;;5053970;28;20161;-49
2024/01/20 06:59:58;;;;;;;2.25;1.10;;;19.00;49.10;;;;;;5048771;28;20096;-49
2024/01/20 07:02:23;;;;;;;2.75;1.33;;;19.00;49.10;;;;;;5052584;28;20033;-48
2024/01/20 07:04:49;;;;;;;1.25;0.75;;;18.90;49.00;;;;;;5054420;28;20040;-47
2024/01/20 07:07:15;;;;;;;1.52;1.10;;;19.00;49.00;;;;;;5048252;28;20545;-48
2024/01/20 07:09:40;;;;;;;1.17;0.88;;;19.00;49.10;;;;;;5053544;28;20593;-48
2024/01/20 07:12:07;;;;;;;1.45;0.90;;;19.00;49.10;;;;;;5051003;28;20402;-52
2024/01/20 07:14:32;;;;;;;1.17;0.98;;;19.00;49.00;;;;;;5047255;28;20029;-46
2024/01/20 07:16:58;;;;;;;1.50;0.90;;;19.00;48.90;;;;;;5050828;28;20044;-47
2024/01/20 07:19:23;;;;;;;1.23;0.82;;;19.00;48.90;;;;;;5050859;28;20036;-49
2024/01/20 07:21:49;;;;;;;2.17;1.02;;;19.00;48.80;;;;;;5046622;28;20123;-49
2024/01/20 07:24:15;;;;;;;1.33;1.05;;;19.00;48.80;;;;;;5039824;28;20025;-51
2024/01/20 07:26:40;;;;;;;1.23;0.80;;;19.00;48.70;;;;;;5031846;28;20390;-49
2024/01/20 07:29:06;;;;;;;1.90;1.13;;;19.00;48.60;;;;;;5051957;28;20040;-51
2024/01/20 07:31:31;;;;;;;1.67;1.00;;;19.10;48.70;;;;;;5053975;28;20052;-50
2024/01/20 07:33:57;;;;;;;1.67;0.90;;;19.10;48.60;;;;;;5050083;28;20098;-52
2024/01/20 07:36:22;;;;;;;1.70;1.15;;;19.10;48.50;;;;;;5050976;28;20545;-54
2024/01/20 07:38:48;;;;;;;1.95;1.10;;;19.10;48.50;;;;;;5055657;28;20037;-48
2024/01/20 07:41:13;;;;;;;1.88;1.02;;;19.10;48.40;;;;;;5051803;28;20039;-48
2024/01/20 07:43:39;;;;;;;1.98;1.02;;;19.20;48.50;;;;;;5048162;28;20123;-50
2024/01/20 07:46:04;;;;;;;1.67;1.00;;;19.20;48.40;;;;;;5040526;28;20132;-48
2024/01/20 07:48:30;;;;;;;4.32;1.10;;;19.20;48.40;;;;;;5035038;28;20025;-47
2024/01/20 07:50:55;;;;;;;2.10;1.30;;;19.20;48.40;;;;;;5036947;28;20037;-48
2024/01/20 07:53:21;;;;;;;1.75;0.80;;;19.20;48.40;;;;;;5051105;28;20381;-52
2024/01/20 07:55:46;;;;;;;2.38;0.90;;;19.20;48.30;;;;;;5051661;28;20029;-51
2024/01/20 07:58:12;;;;;;;3.42;1.10;;;19.30;48.40;;;;;;5049735;28;20736;-49
2024/01/20 08:00:38;;;;;;;5.95;1.20;;;19.30;48.30;;;;;;5055673;28;20033;-50
2024/01/20 08:03:03;;;;;;;4.03;1.25;;;19.30;48.30;;;;;;5052189;28;20021;-51
2024/01/20 08:05:31;;;;;;;2.67;1.20;;;19.30;48.30;;;;;;5036213;28;20123;-50
2024/01/20 08:07:56;;;;;;;1.25;1.13;;;19.30;48.40;;;;;;5052623;28;20032;-52
2024/01/20 08:10:22;;;;;;;4.05;2.10;;;19.30;48.50;;;;;;5050844;28;20036;-47
2024/01/20 08:12:47;;;;;;;8.55;3.05;;;19.40;48.70;;;;;;5051556;28;20048;-50
2024/01/20 08:15:13;;;;;;;9.35;3.83;;;19.40;48.70;;;;;;5052000;28;20025;-49
2024/01/20 08:17:38;;;;;;;12.52;5.25;;;19.30;48.70;;;;;;5047177;28;20040;-48
2024/01/20 08:20:05;;;;;;;11.60;5.18;;;19.40;48.80;;;;;;5050333;28;20033;-51
2024/01/20 08:22:30;;;;;;;12.57;5.65;;;19.40;48.90;;;;;;5051166;28;20028;-49
2024/01/20 08:24:59;;;;;;;9.50;4.97;;;19.30;49.00;;;;;;5046258;28;20056;-48
2024/01/20 08:27:24;;;;;;;11.13;4.40;;;19.30;48.90;;;;;;5054691;28;20028;-47
2024/01/20 08:29:50;;;;;;;12.65;5.13;;;19.30;48.90;;;;;;5048185;28;20078;-49
2024/01/20 08:32:16;;;;;;;9.23;4.53;;;19.30;48.90;;;;;;5047812;28;20293;-49
2024/01/20 08:34:41;;;;;;;11.82;4.95;;;19.30;48.90;;;;;;5039467;28;20079;-48
2024/01/20 08:37:07;;;;;;;14.80;4.32;;;19.20;48.90;;;;;;5048622;28;20090;-50
2024/01/20 08:39:33;;;;;;;9.07;4.60;;;19.20;48.90;;;;;;5048497;28;20025;-49
2024/01/20 08:41:58;;;;;;;14.45;5.00;;;19.20;49.10;;;;;;5049175;28;20526;-48
2024/01/20 08:44:23;;;;;;;12.35;4.65;;;19.10;49.10;;;;;;5047653;28;20055;-46
2024/01/20 08:46:49;;;;;;;9.75;4.45;;;19.00;49.10;;;;;;5052688;28;20032;-52
2024/01/20 08:49:15;;;;;;;9.25;4.43;;;19.00;49.40;;;;;;5049203;28;20140;-48
2024/01/20 08:51:40;;;;;;;13.60;4.47;;;18.90;49.40;;;;;;5051318;28;20040;-49
2024/01/20 08:54:06;;;;;;;8.32;3.75;;;18.80;49.60;;;;;;5051766;28;20033;-49
2024/01/20 08:56:31;;;;;;;6.80;4.05;;;18.80;49.60;;;;;;5054680;28;20117;-50
2024/01/20 08:58:57;;;;;;;7.30;3.30;;;18.70;49.70;;;;;;5025022;28;20044;-48
2024/01/20 09:01:22;;;;;;;8.88;3.67;;;18.70;49.80;;;;;;5054268;28;20534;-48
2024/01/20 09:03:48;;;;;;;5.97;3.60;;;18.60;49.70;;;;;;5049097;28;20414;-51
2024/01/20 09:06:15;;;;;;;8.88;4.03;;;18.60;49.50;;;;;;5047366;28;20033;-51
2024/01/20 09:08:40;;;;;;;9.63;4.25;;;18.60;49.50;;;;;;5052942;28;20029;-49
2024/01/20 09:11:06;;;;;;;9.55;4.85;;;18.60;49.70;;;;;;5033693;28;20033;-51
2024/01/20 09:13:31;;;;;;;10.32;5.75;;;18.60;49.60;;;;;;5047667;28;20031;-51
2024/01/20 09:15:57;;;;;;;13.63;5.25;;;18.70;49.00;;;;;;5054929;28;20052;-47
2024/01/20 09:18:22;;;;;;;8.63;5.18;;;18.70;48.80;;;;;;5050035;28;20495;-53
2024/01/20 09:20:48;;;;;;;8.88;4.35;;;18.90;48.60;;;;;;5049316;28;20569;-52
2024/01/20 09:23:13;;;;;;;15.48;5.72;;;19.00;48.30;;;;;;5051233;28;20033;-46
2024/01/20 09:25:39;;;;;;;12.43;5.85;;;19.10;48.30;;;;;;5037046;28;20033;-51
2024/01/20 09:28:05;;;;;;;13.75;7.05;;;19.20;48.40;;;;;;5051030;28;20087;-53
2024/01/20 09:30:31;;;;;;;19.50;7.72;;;19.30;48.20;;;;;;5051549;28;20025;-53
2024/01/20 09:32:56;;;;;;;14.43;7.18;;;19.40;48.10;;;;;;5047564;28;20048;-51
2024/01/20 09:35:22;;;;;;;15.20;6.80;;;19.40;48.20;;;;;;5053627;28;20033;-50
2024/01/20 09:37:48;;;;;;;13.02;6.43;;;19.50;48.30;;;;;;5052027;28;20044;-51
2024/01/20 09:40:15;;;;;;;13.45;6.30;;;19.50;48.30;;;;;;5045229;28;21235;-49
2024/01/20 09:42:42;;;;;;;17.80;6.63;;;19.50;48.30;;;;;;5051787;28;20433;-52
2024/01/20 09:45:08;;;;;;;15.00;6.47;;;19.50;48.20;;;;;;5048809;28;20040;-49
2024/01/20 09:47:35;;;;;;;17.20;6.60;;;19.50;48.20;;;;;;5047524;28;20082;-53
2024/01/20 09:50:01;;;;;;;11.70;5.82;;;19.50;48.20;;;;;;5048786;28;20060;-49
2024/01/20 09:52:28;;;;;;;14.13;5.93;;;19.60;48.30;;;;;;5044870;28;20123;-49
2024/01/20 09:55:15;;;;;;;12.00;5.72;;;19.60;48.20;;;;;;5040793;28;20159;-52
2024/01/20 09:57:42;;;;;;;12.15;5.68;;;19.60;48.20;;;;;;5049171;28;20061;-48
2024/01/20 10:00:08;;;;;;;13.95;5.90;;;19.60;48.20;;;;;;5044562;28;20041;-49
2024/01/20 10:02:35;;;;;;;11.25;5.28;;;19.60;48.10;;;;;;5034556;28;20037;-52
2024/01/20 10:05:03;;;;;;;12.93;5.47;;;19.60;48.10;;;;;;5048903;28;20055;-46
2024/01/20 10:07:29;;;;;;;17.45;5.47;;;19.60;48.10;;;;;;5049518;28;20039;-49
2024/01/20 10:09:55;;;;;;;11.88;4.65;;;19.50;48.10;;;;;;5045012;28;20394;-45
2024/01/20 10:12:23;;;;;;;12.00;5.10;;;19.50;48.20;;;;;;5049189;28;20037;-59
2024/01/20 10:14:51;;;;;;;9.73;4.57;;;19.50;48.30;;;;;;5045529;28;20074;-49
2024/01/20 10:17:17;;;;;;;11.32;5.20;;;19.40;48.30;;;;;;5047677;28;20039;-46
2024/01/20 10:19:43;;;;;;;9.60;3.95;;;19.40;48.50;;;;;;5059987;23;20037;-48
2024/01/20 10:22:09;;;;;;;13.23;4.10;;;19.30;48.60;;;;;;5050810;28;20492;-46
2024/01/20 10:24:44;;;;;;;8.02;4.22;;;19.20;48.60;;;;;;5050179;28;20024;-50
2024/01/20 10:27:15;;;;;;;9.35;4.07;;;19.20;48.40;;;;;;5051206;28;20032;-47
2024/01/20 10:29:40;;;;;;;9.15;4.57;;;19.20;48.60;;;;;;5029181;28;20040;-50
2024/01/20 10:32:06;;;;;;;12.02;4.78;;;19.10;48.40;;;;;;5061163;28;20029;-47
2024/01/20 10:34:31;;;;;;;12.15;4.40;;;19.10;48.40;;;;;;5066880;28;20028;-47
2024/01/20 10:36:59;;;;;;;12.05;4.35;;;19.00;48.60;;;;;;5059559;28;20033;-46
2024/01/20 10:39:26;;;;;;;11.20;4.50;;;19.00;48.60;;;;;;5067649;28;20024;-50
2024/01/20 10:41:53;;;;;;;15.88;5.75;;;19.00;48.50;;;;;;5045278;28;20032;-50
2024/01/20 10:44:24;;;;;;;14.93;5.85;;;19.00;48.60;;;;;;5053728;28;20422;-51
2024/01/20 10:46:53;;;;;;;17.02;5.05;;;19.00;48.70;;;;;;5053387;28;20028;-48
2024/01/20 10:49:22;;;;;;;11.40;4.72;;;19.00;48.80;;;;;;5022181;28;20497;-48
2024/01/20 10:51:48;;;;;;;13.60;4.60;;;19.10;48.90;;;;;;5047067;28;20048;-50
2024/01/20 10:54:14;;;;;;;10.40;4.38;;;19.00;49.10;;;;;;5056696;28;20039;-48
2024/01/20 10:56:40;;;;;;;13.52;5.25;;;19.00;49.20;;;;;;5051283;28;20687;-48
2024/01/20 10:59:17;;;;;;;17.48;5.07;;;19.00;49.10;;;;;;5057872;28;20160;-50
2024/01/20 11:01:45;;;;;;;9.52;4.45;;;19.00;49.20;;;;;;5057411;28;20028;-47
2024/01/20 11:04:17;;;;;;;11.27;4.22;;;19.00;49.10;;;;;;5049160;28;20473;-46
2024/01/20 11:06:44;;;;;;;10.88;4.50;;;19.00;49.00;;;;;;5054997;28;20063;-49
2024/01/20 11:09:09;;;;;;;9.95;4.13;;;19.10;48.60;;;;;;5047950;28;20041;-47
2024/01/20 11:11:35;;;;;;;13.43;4.68;;;19.20;48.60;;;;;;5046673;28;20399;-49
2024/01/20 11:14:01;;;;;;;16.33;5.47;;;19.20;48.50;;;;;;5046774;28;20025;-48
2024/01/20 11:16:36;;;;;;;18.55;7.35;;;19.30;48.90;;;;;;5058035;28;20553;-51
2024/01/20 11:19:09;;;;;;;30.75;11.57;;;19.30;49.00;;;;;;5045051;28;20044;-50
2024/01/20 11:21:35;;;;;;;40.20;13.70;;;19.40;49.60;;;;;;5049800;28;20135;-46
2024/01/20 11:24:01;;;;;;;47.55;15.27;;;19.50;49.70;;;;;;5049383;28;20561;-49
2024/01/20 11:26:37;;;;;;;40.45;14.98;;;19.50;50.60;;;;;;5044432;28;20746;-50
2024/01/20 11:29:04;;;;;;;39.70;15.30;;;19.50;50.10;;;;;;5054056;28;20032;-50
2024/01/20 11:31:31;;;;;;;43.15;15.85;;;19.50;49.90;;;;;;5050954;28;20071;-50
2024/01/20 11:34:02;;;;;;;42.88;16.88;;;19.50;49.80;;;;;;5047826;28;20040;-50
2024/01/20 11:36:29;;;;;;;46.45;15.18;;;19.50;49.70;;;;;;5052268;28;20037;-48
2024/01/20 11:38:56;;;;;;;35.42;13.95;;;19.50;49.70;;;;;;5048992;28;20029;-51
2024/01/20 11:41:22;;;;;;;41.00;15.13;;;19.60;49.70;;;;;;5048344;28;20404;-52
2024/01/20 11:43:47;;;;;;;37.10;14.00;;;19.60;49.70;;;;;;5045987;28;20097;-48
2024/01/20 11:46:14;;;;;;;31.48;12.10;;;19.60;49.60;;;;;;5048969;28;20035;-50
2024/01/20 11:48:40;;;;;;;29.02;11.75;;;19.60;49.60;;;;;;5045443;28;20032;-47
2024/01/20 11:51:06;;;;;;;29.15;11.20;;;19.60;49.60;;;;;;5048714;28;20044;-48
2024/01/20 11:53:31;;;;;;;27.00;10.88;;;19.60;49.60;;;;;;5044771;28;20029;-46
2024/01/20 11:55:59;;;;;;;28.40;10.70;;;19.60;49.60;;;;;;5051926;28;20028;-50
2024/01/20 11:58:25;;;;;;;22.85;9.10;;;19.60;49.50;;;;;;5050582;28;20033;-47
2024/01/20 12:00:52;;;;;;;27.50;9.98;;;19.60;49.50;;;;;;5043761;28;20119;-50
2024/01/20 12:03:18;;;;;;;17.85;8.43;;;19.60;49.50;;;;;;5047799;28;20082;-49
2024/01/20 12:05:43;;;;;;;21.55;8.60;;;19.50;49.40;;;;;;5048732;28;20025;-50
2024/01/20 12:08:09;;;;;;;18.92;8.80;;;19.50;49.40;;;;;;5043408;28;20106;-50
2024/01/20 12:10:35;;;;;;;18.55;8.27;;;19.50;49.40;;;;;;5047727;28;20454;-48
2024/01/20 12:13:02;;;;;;;19.10;7.13;;;19.50;49.50;;;;;;5046819;28;20817;-47
2024/01/20 12:15:35;;;;;;;19.23;7.93;;;19.50;49.60;;;;;;5048142;28;20041;-53
2024/01/20 12:18:01;;;;;;;21.33;7.75;;;19.40;49.60;;;;;;5043525;28;20036;-51
2024/01/20 12:20:27;;;;;;;22.95;7.93;;;19.40;49.60;;;;;;5048092;28;20044;-53
2024/01/20 12:22:56;;;;;;;18.20;7.88;;;19.40;49.60;;;;;;5051739;28;20048;-47
2024/01/20 12:25:22;;;;;;;14.80;6.13;;;19.40;49.60;;;;;;5030233;28;20095;-52
2024/01/20 12:27:50;;;;;;;17.58;7.40;;;19.40;49.60;;;;;;5051664;28;20949;-48
2024/01/20 12:30:16;;;;;;;17.10;6.97;;;19.40;49.50;;;;;;5053172;28;20029;-51
2024/01/20 12:32:42;;;;;;;15.65;6.00;;;19.40;49.50;;;;;;5052557;28;20045;-49
2024/01/20 12:35:07;;;;;;;15.18;6.13;;;19.40;49.40;;;;;;5051583;28;20058;-52
2024/01/20 12:37:33;;;;;;;13.30;6.45;;;19.40;49.30;;;;;;5055711;28;20037;-52